Time;durP1;ratioP1;P1;durP2;ratioP2;P2;SDS_P1;SDS_P2;PMS_P1;PMS_P2;Temp;Humidity;BMP_temperature;BMP_pressure;BME280_temperature;BME280_humidity;BME280_pressure;Samples;Min_cycle;Max_cycle;Signal;HPM_P1;HPM_P2
2022/04/29 00:02:09;;;;;;;3.40;2.70;;;14.40;57.80;;;;;;5066789;28;20031;-59
2022/04/29 00:04:36;;;;;;;4.20;2.72;;;14.40;57.80;;;;;;5072623;28;20031;-59
2022/04/29 00:07:02;;;;;;;3.70;2.95;;;14.50;57.70;;;;;;5071484;28;20467;-60
2022/04/29 00:09:28;;;;;;;3.38;2.60;;;14.50;57.40;;;;;;5054854;28;20488;-60
2022/04/29 00:11:54;;;;;;;2.72;2.30;;;14.50;57.30;;;;;;5074009;28;20025;-60
2022/04/29 00:14:21;;;;;;;2.80;2.50;;;14.50;57.30;;;;;;5067031;28;20031;-60
2022/04/29 00:16:47;;;;;;;2.95;2.20;;;14.50;57.30;;;;;;5071082;28;20099;-60
2022/04/29 00:19:13;;;;;;;2.53;2.30;;;14.50;57.40;;;;;;5060102;28;20021;-59
2022/04/29 00:21:41;;;;;;;4.43;2.70;;;14.60;57.60;;;;;;5059336;28;20048;-59
2022/04/29 00:24:09;;;;;;;4.07;2.75;;;14.60;57.40;;;;;;5067934;28;20569;-59
2022/04/29 00:26:36;;;;;;;3.58;2.50;;;14.60;57.40;;;;;;5070895;28;20025;-59
2022/04/29 00:29:02;;;;;;;2.55;2.35;;;14.60;57.10;;;;;;5072073;28;20166;-60
2022/04/29 00:31:28;;;;;;;4.22;2.65;;;14.60;56.60;;;;;;5067836;28;20032;-59
2022/04/29 00:33:54;;;;;;;2.80;2.42;;;14.60;56.50;;;;;;5073550;28;20031;-58
2022/04/29 00:36:20;;;;;;;3.03;2.50;;;14.60;56.30;;;;;;5069331;28;20119;-60
2022/04/29 00:38:45;;;;;;;2.60;2.35;;;14.60;56.30;;;;;;5073032;28;20029;-59
2022/04/29 00:41:20;;;;;;;3.15;2.40;;;14.60;56.30;;;;;;5073804;28;20074;-60
2022/04/29 00:43:46;;;;;;;3.67;2.70;;;14.60;56.10;;;;;;5073880;28;20479;-59
2022/04/29 00:46:12;;;;;;;2.20;2.00;;;14.60;56.10;;;;;;5072113;28;20032;-59
2022/04/29 00:48:38;;;;;;;3.63;2.50;;;14.60;56.00;;;;;;5060346;28;20016;-60
2022/04/29 00:51:04;;;;;;;3.45;2.50;;;14.60;56.10;;;;;;5072896;28;20422;-59
2022/04/29 00:53:30;;;;;;;4.50;2.53;;;14.60;56.10;;;;;;5072420;28;20051;-59
2022/04/29 00:55:57;;;;;;;3.10;2.70;;;14.70;56.10;;;;;;5073574;28;20052;-60
2022/04/29 00:58:34;;;;;;;2.72;2.38;;;14.70;56.10;;;;;;5073290;28;20063;-59
2022/04/29 01:01:03;;;;;;;3.78;2.25;;;14.70;55.90;;;;;;5072008;28;20037;-59
2022/04/29 01:03:29;;;;;;;3.78;2.60;;;14.70;55.90;;;;;;5073113;28;20020;-60
2022/04/29 01:05:55;;;;;;;3.03;2.30;;;14.60;56.00;;;;;;5072087;28;20024;-60
2022/04/29 01:08:21;;;;;;;4.25;2.60;;;14.60;56.20;;;;;;5073251;28;20446;-59
2022/04/29 01:10:47;;;;;;;2.83;2.47;;;14.60;56.40;;;;;;5071732;28;20028;-60
2022/04/29 01:13:13;;;;;;;3.08;2.50;;;14.60;56.20;;;;;;5073131;28;20037;-59
2022/04/29 01:15:39;;;;;;;2.80;2.38;;;14.60;56.00;;;;;;5071842;28;20089;-59
2022/04/29 01:18:09;;;;;;;2.90;2.45;;;14.60;55.90;;;;;;5072826;28;20020;-60
2022/04/29 01:20:36;;;;;;;3.85;2.90;;;14.50;56.10;;;;;;5072914;28;20062;-60
2022/04/29 01:23:06;;;;;;;2.67;2.20;;;14.50;56.00;;;;;;5066785;28;20049;-60
2022/04/29 01:25:32;;;;;;;3.67;2.80;;;14.50;55.90;;;;;;5073177;28;20111;-59
2022/04/29 01:27:57;;;;;;;3.65;2.40;;;14.50;56.00;;;;;;5071916;28;20553;-59
2022/04/29 01:30:23;;;;;;;3.53;2.70;;;14.50;56.10;;;;;;5072938;28;20016;-60
2022/04/29 01:32:49;;;;;;;3.38;2.65;;;14.50;56.20;;;;;;5072705;28;20421;-60
2022/04/29 01:35:15;;;;;;;3.22;2.33;;;14.40;56.20;;;;;;5067597;28;20032;-60
2022/04/29 01:37:44;;;;;;;2.97;2.67;;;14.40;56.00;;;;;;5070156;28;20032;-59
2022/04/29 01:40:11;;;;;;;3.30;2.75;;;14.40;55.90;;;;;;5065224;28;20024;-59
2022/04/29 01:42:38;;;;;;;2.72;2.28;;;14.40;55.90;;;;;;5072610;28;20051;-59
2022/04/29 01:45:04;;;;;;;2.70;2.50;;;14.30;55.60;;;;;;5058794;28;20056;-59
2022/04/29 01:47:30;;;;;;;4.90;2.70;;;14.30;55.60;;;;;;5072579;28;20025;-59
2022/04/29 01:49:56;;;;;;;2.30;2.10;;;14.30;55.90;;;;;;5071154;28;20551;-60
2022/04/29 01:52:21;;;;;;;3.53;2.58;;;14.30;55.90;;;;;;5072191;28;20130;-59
2022/04/29 01:54:47;;;;;;;3.17;2.30;;;14.30;56.00;;;;;;5065434;28;20119;-60
2022/04/29 01:57:12;;;;;;;3.67;2.80;;;14.30;56.00;;;;;;5064272;28;20488;-59
2022/04/29 01:59:38;;;;;;;2.95;2.58;;;14.30;55.90;;;;;;5065488;28;20028;-59
2022/04/29 02:02:08;;;;;;;3.30;2.90;;;14.30;55.90;;;;;;5071677;28;20016;-60
2022/04/29 02:04:34;;;;;;;3.13;2.50;;;14.30;55.90;;;;;;5069880;28;20040;-60
2022/04/29 02:07:01;;;;;;;2.80;2.50;;;14.30;55.80;;;;;;5071067;28;20037;-60
2022/04/29 02:09:27;;;;;;;2.92;2.47;;;14.30;55.60;;;;;;5072360;28;20048;-59
2022/04/29 02:12:05;;;;;;;2.42;2.22;;;14.30;55.70;;;;;;5069113;28;20024;-59
2022/04/29 02:14:34;;;;;;;3.83;2.97;;;14.30;55.90;;;;;;5064598;28;20031;-59
2022/04/29 02:17:03;;;;;;;3.58;2.97;;;14.30;55.90;;;;;;5071886;28;20111;-60
2022/04/29 02:19:29;;;;;;;2.65;2.45;;;14.30;55.60;;;;;;5069314;28;20028;-60
2022/04/29 02:21:57;;;;;;;3.90;2.95;;;14.30;55.70;;;;;;5070243;28;20412;-60
2022/04/29 02:24:22;;;;;;;3.25;2.78;;;14.30;56.00;;;;;;5071659;28;20032;-60
2022/04/29 02:26:48;;;;;;;3.70;2.58;;;14.30;56.00;;;;;;5071998;28;20036;-60
2022/04/29 02:29:14;;;;;;;2.63;2.42;;;14.30;56.30;;;;;;5069872;28;20035;-60
2022/04/29 02:31:39;;;;;;;3.10;2.78;;;14.30;56.50;;;;;;5068457;28;20480;-60
2022/04/29 02:34:05;;;;;;;2.97;2.45;;;14.30;56.50;;;;;;5071167;28;20031;-60
2022/04/29 02:36:31;;;;;;;4.85;2.90;;;14.20;56.50;;;;;;5069569;28;20033;-60
2022/04/29 02:38:57;;;;;;;5.00;2.70;;;14.20;56.80;;;;;;5072119;28;20442;-60
2022/04/29 02:41:23;;;;;;;4.45;3.00;;;14.20;56.90;;;;;;5071728;28;20101;-60
2022/04/29 02:43:49;;;;;;;3.40;2.67;;;14.20;56.70;;;;;;5071696;28;20080;-60
2022/04/29 02:46:15;;;;;;;3.10;2.55;;;14.20;56.40;;;;;;5070319;28;20039;-59
2022/04/29 02:48:41;;;;;;;5.00;2.80;;;14.20;56.20;;;;;;5070983;28;20431;-59
2022/04/29 02:51:07;;;;;;;4.18;2.60;;;14.20;56.10;;;;;;5070381;28;20072;-60
2022/04/29 02:53:32;;;;;;;4.63;2.80;;;14.20;56.10;;;;;;5071734;28;20035;-59
2022/04/29 02:55:58;;;;;;;3.47;2.40;;;14.20;56.30;;;;;;5072082;28;20104;-59
2022/04/29 02:58:24;;;;;;;2.97;2.60;;;14.20;56.20;;;;;;5071628;28;20063;-60
2022/04/29 03:00:49;;;;;;;2.88;2.33;;;14.20;56.00;;;;;;5071695;28;20486;-60
2022/04/29 03:03:15;;;;;;;3.53;2.50;;;14.20;55.60;;;;;;5070694;28;20070;-60
2022/04/29 03:05:41;;;;;;;2.63;2.40;;;14.10;55.50;;;;;;5069260;28;20040;-60
2022/04/29 03:08:07;;;;;;;2.75;2.50;;;14.20;55.40;;;;;;5071256;28;20060;-60
2022/04/29 03:10:34;;;;;;;2.85;2.45;;;14.20;55.50;;;;;;5069212;28;20029;-60
2022/04/29 03:13:00;;;;;;;3.00;2.70;;;14.10;55.50;;;;;;5073988;28;20032;-60
2022/04/29 03:15:27;;;;;;;3.33;2.78;;;14.10;55.50;;;;;;5075061;28;20024;-60
2022/04/29 03:20:40;;;;;;;3.20;2.70;;;14.10;56.10;;;;;;5070198;28;20034;-59
2022/04/29 03:23:07;;;;;;;3.25;2.50;;;14.10;56.30;;;;;;5073963;28;20381;-60
2022/04/29 03:25:34;;;;;;;3.28;2.60;;;14.10;56.40;;;;;;5075039;28;20120;-60
2022/04/29 03:27:59;;;;;;;3.85;2.75;;;14.10;56.80;;;;;;5073737;28;20045;-59
2022/04/29 03:30:25;;;;;;;3.03;2.70;;;14.10;56.50;;;;;;5074923;28;20029;-58
2022/04/29 03:32:59;;;;;;;2.65;2.25;;;14.10;56.60;;;;;;5075180;28;20479;-60
2022/04/29 03:35:25;;;;;;;3.30;2.70;;;14.10;56.60;;;;;;5073931;28;20033;-60
2022/04/29 03:37:52;;;;;;;3.38;2.45;;;14.10;56.60;;;;;;5063876;28;20065;-60
2022/04/29 03:40:25;;;;;;;3.28;2.50;;;14.10;56.60;;;;;;5069291;28;20557;-59
2022/04/29 03:42:53;;;;;;;3.75;2.80;;;14.10;56.70;;;;;;5073708;28;20024;-59
2022/04/29 03:45:21;;;;;;;3.90;2.78;;;14.10;57.10;;;;;;5074783;28;20024;-59
2022/04/29 03:47:47;;;;;;;3.10;2.50;;;14.10;57.70;;;;;;5075246;28;20016;-60
2022/04/29 03:50:13;;;;;;;2.65;2.45;;;14.10;58.00;;;;;;5073633;28;20510;-60
2022/04/29 03:52:51;;;;;;;3.67;2.78;;;14.10;58.00;;;;;;5073700;28;20642;-59
2022/04/29 03:55:25;;;;;;;3.67;2.30;;;14.10;58.00;;;;;;5070256;28;20512;-60
2022/04/29 03:57:53;;;;;;;2.95;2.42;;;14.10;57.90;;;;;;5073246;28;20037;-60
2022/04/29 04:00:20;;;;;;;3.80;2.47;;;14.10;58.00;;;;;;5074081;28;20039;-59
2022/04/29 04:02:45;;;;;;;2.72;2.45;;;14.10;57.90;;;;;;5074467;28;20028;-59
2022/04/29 04:05:11;;;;;;;3.03;2.72;;;14.10;57.90;;;;;;5073430;28;20123;-60
2022/04/29 04:07:37;;;;;;;4.28;2.78;;;14.10;57.70;;;;;;5074227;28;20016;-60
2022/04/29 04:10:04;;;;;;;4.22;2.95;;;14.10;57.70;;;;;;5069073;28;20031;-60
2022/04/29 04:12:49;;;;;;;3.67;2.70;;;14.10;58.10;;;;;;5057465;28;20514;-60
2022/04/29 04:15:16;;;;;;;3.58;2.80;;;14.10;57.80;;;;;;5064056;28;20558;-60
2022/04/29 04:17:43;;;;;;;4.28;3.00;;;14.00;57.60;;;;;;5069746;28;20071;-59
2022/04/29 04:20:10;;;;;;;3.85;2.67;;;14.10;57.90;;;;;;5066325;28;20581;-59
2022/04/29 04:22:36;;;;;;;3.58;2.65;;;14.00;58.00;;;;;;5067579;28;20040;-60
2022/04/29 04:25:08;;;;;;;2.88;2.60;;;14.00;58.00;;;;;;5067906;28;20032;-60
2022/04/29 04:27:34;;;;;;;2.63;2.42;;;14.00;58.20;;;;;;5070178;28;20543;-60
2022/04/29 04:30:00;;;;;;;4.40;2.88;;;14.00;58.00;;;;;;5063562;28;20128;-60
2022/04/29 04:32:27;;;;;;;2.50;2.30;;;14.00;57.80;;;;;;5067222;28;20067;-59
2022/04/29 04:34:54;;;;;;;3.00;2.60;;;14.00;57.80;;;;;;5065345;28;20117;-60
2022/04/29 04:37:27;;;;;;;3.50;2.63;;;13.90;57.60;;;;;;5065424;28;20040;-59
2022/04/29 04:39:54;;;;;;;3.38;2.80;;;13.90;57.60;;;;;;5072519;28;20031;-59
2022/04/29 04:42:21;;;;;;;3.83;3.03;;;13.90;57.50;;;;;;5063778;28;20496;-60
2022/04/29 04:44:48;;;;;;;3.42;2.92;;;13.90;57.80;;;;;;5069592;28;20089;-59
2022/04/29 04:47:15;;;;;;;3.30;2.67;;;13.90;58.10;;;;;;5064929;28;20373;-60
2022/04/29 04:49:41;;;;;;;3.65;2.70;;;13.90;57.90;;;;;;5067297;28;20468;-59
2022/04/29 04:52:08;;;;;;;3.40;2.88;;;13.90;58.10;;;;;;5062534;28;20032;-60
2022/04/29 04:54:34;;;;;;;3.20;2.90;;;14.00;58.20;;;;;;5068865;28;20056;-59
2022/04/29 04:57:00;;;;;;;3.83;2.85;;;14.00;58.80;;;;;;5070323;28;20426;-59
2022/04/29 04:59:26;;;;;;;3.35;2.95;;;14.00;58.20;;;;;;5071616;28;20025;-60
2022/04/29 05:01:52;;;;;;;3.53;2.70;;;14.00;58.30;;;;;;5067999;28;20020;-60
2022/04/29 05:04:17;;;;;;;3.28;2.80;;;14.00;58.20;;;;;;5069674;28;20036;-60
2022/04/29 05:06:44;;;;;;;3.75;2.80;;;13.90;58.10;;;;;;5054468;28;20064;-60
2022/04/29 05:09:10;;;;;;;2.67;2.42;;;13.90;58.20;;;;;;5071555;28;20107;-60
2022/04/29 05:11:35;;;;;;;3.22;2.45;;;13.90;58.00;;;;;;5070945;28;20137;-60
2022/04/29 05:14:01;;;;;;;2.53;2.33;;;13.90;58.10;;;;;;5070302;28;20134;-61
2022/04/29 05:16:27;;;;;;;2.88;2.53;;;13.90;57.90;;;;;;5065142;28;20036;-59
2022/04/29 05:18:53;;;;;;;4.80;3.10;;;13.90;58.10;;;;;;5069497;28;20025;-59
2022/04/29 05:21:18;;;;;;;3.63;2.60;;;13.90;57.90;;;;;;5064138;28;20037;-58
2022/04/29 05:23:45;;;;;;;3.83;2.95;;;13.90;57.80;;;;;;5069582;28;20150;-60
2022/04/29 05:26:12;;;;;;;4.07;2.78;;;14.00;57.60;;;;;;5069010;28;20036;-60
2022/04/29 05:28:38;;;;;;;3.70;2.85;;;13.90;57.50;;;;;;5072298;28;20384;-60
2022/04/29 05:31:04;;;;;;;3.20;2.90;;;14.00;57.50;;;;;;5068039;28;20033;-60
2022/04/29 05:33:32;;;;;;;3.03;2.83;;;14.00;57.40;;;;;;5071629;28;20032;-59
2022/04/29 05:35:59;;;;;;;3.50;3.20;;;14.00;57.30;;;;;;5067089;28;20542;-59
2022/04/29 05:42:14;;;;;;;3.60;2.75;;;14.00;57.20;;;;;;5067441;28;20476;-60
2022/04/29 05:43:56;;;;;;;3.13;2.80;;;14.00;57.10;;;;;;5071075;28;20019;-60
2022/04/29 05:46:22;;;;;;;4.47;3.20;;;14.00;57.10;;;;;;5067439;28;20396;-60
2022/04/29 05:48:48;;;;;;;4.95;2.85;;;14.00;57.00;;;;;;5065882;28;20099;-59
2022/04/29 05:51:13;;;;;;;3.88;3.00;;;14.00;56.70;;;;;;5056615;28;20033;-60
2022/04/29 05:53:39;;;;;;;3.10;2.60;;;14.00;56.90;;;;;;5064103;28;20029;-60
2022/04/29 05:56:05;;;;;;;4.38;3.05;;;14.00;56.80;;;;;;5060291;28;20017;-59
2022/04/29 05:58:30;;;;;;;3.97;3.17;;;14.00;57.10;;;;;;5063803;28;20492;-60
2022/04/29 06:00:58;;;;;;;4.90;3.40;;;14.00;57.10;;;;;;5064398;28;20047;-59
2022/04/29 06:03:24;;;;;;;3.83;3.30;;;14.00;57.30;;;;;;5057577;28;20025;-58
2022/04/29 06:05:50;;;;;;;3.67;3.13;;;14.00;57.10;;;;;;5056603;28;20051;-60
2022/04/29 06:08:15;;;;;;;3.65;2.90;;;14.00;57.20;;;;;;5061456;28;20497;-60
2022/04/29 06:10:41;;;;;;;3.10;2.80;;;14.00;57.10;;;;;;5058354;28;20033;-60
2022/04/29 06:13:08;;;;;;;2.75;2.55;;;14.00;57.10;;;;;;5062517;28;20031;-59
2022/04/29 06:15:34;;;;;;;3.42;2.90;;;14.00;57.00;;;;;;5059521;28;20036;-59
2022/04/29 06:18:00;;;;;;;4.00;2.50;;;14.00;56.80;;;;;;5062605;28;20035;-60
2022/04/29 06:20:26;;;;;;;4.65;2.95;;;14.10;56.90;;;;;;5040478;28;20504;-60
2022/04/29 06:22:51;;;;;;;5.05;3.17;;;14.10;57.10;;;;;;5051087;28;20037;-59
2022/04/29 06:25:20;;;;;;;2.60;2.40;;;14.10;57.10;;;;;;5050056;28;20037;-58
2022/04/29 06:27:46;;;;;;;3.15;2.67;;;14.10;57.00;;;;;;5056881;28;20360;-57
2022/04/29 06:30:12;;;;;;;4.50;3.08;;;14.10;56.80;;;;;;5048393;28;20036;-59
2022/04/29 06:32:38;;;;;;;3.20;2.90;;;14.10;57.00;;;;;;5042760;28;20028;-59
2022/04/29 06:35:06;;;;;;;3.38;2.60;;;14.20;57.10;;;;;;5057153;28;20465;-59
2022/04/29 06:37:35;;;;;;;3.45;3.15;;;14.20;56.60;;;;;;5048680;28;20118;-59
2022/04/29 06:40:02;;;;;;;3.60;2.88;;;14.30;56.60;;;;;;5046847;28;20041;-60
2022/04/29 06:42:28;;;;;;;3.85;2.95;;;14.40;56.40;;;;;;5051129;28;20033;-59
2022/04/29 06:44:53;;;;;;;5.15;2.75;;;14.40;56.10;;;;;;5051399;28;20583;-59
2022/04/29 06:47:19;;;;;;;3.85;2.90;;;14.40;56.00;;;;;;5050640;28;20033;-59
2022/04/29 06:49:45;;;;;;;3.65;2.75;;;14.50;56.00;;;;;;5051236;28;20033;-59
2022/04/29 06:52:11;;;;;;;3.70;2.80;;;14.50;56.00;;;;;;5051748;28;20086;-60
2022/04/29 06:54:37;;;;;;;4.30;2.80;;;14.50;56.00;;;;;;5050085;28;21192;-59
2022/04/29 06:57:03;;;;;;;6.32;2.90;;;14.50;56.00;;;;;;5050004;28;20043;-58
2022/04/29 06:59:29;;;;;;;4.22;3.25;;;14.60;56.10;;;;;;5043122;28;20068;-58
2022/04/29 07:01:55;;;;;;;5.28;2.80;;;14.60;56.20;;;;;;5053827;28;20443;-60
2022/04/29 07:04:21;;;;;;;3.42;2.65;;;14.60;56.20;;;;;;5054094;28;20108;-58
2022/04/29 07:06:47;;;;;;;3.35;3.03;;;14.60;56.20;;;;;;5056730;28;20571;-59
2022/04/29 07:09:12;;;;;;;3.00;2.70;;;14.60;56.10;;;;;;5050457;28;20036;-60
2022/04/29 07:11:38;;;;;;;4.03;2.90;;;14.60;55.90;;;;;;5060513;28;20032;-60
2022/04/29 07:14:06;;;;;;;3.38;2.67;;;14.70;55.90;;;;;;5053339;28;20043;-61
2022/04/29 07:16:31;;;;;;;4.38;3.00;;;14.70;56.10;;;;;;5054133;28;20514;-59
2022/04/29 07:18:57;;;;;;;3.25;2.70;;;14.70;55.90;;;;;;5051489;28;20089;-58
2022/04/29 07:21:23;;;;;;;3.72;2.92;;;14.70;55.90;;;;;;5050056;28;20020;-60
2022/04/29 07:23:49;;;;;;;3.83;3.08;;;14.80;55.60;;;;;;5056676;28;20503;-59
2022/04/29 07:26:15;;;;;;;3.15;2.78;;;14.80;55.40;;;;;;5055711;28;20074;-58
2022/04/29 07:28:41;;;;;;;4.40;3.00;;;14.90;55.40;;;;;;5051558;28;20544;-60
2022/04/29 07:31:07;;;;;;;2.88;2.47;;;14.90;55.40;;;;;;5047756;28;20028;-58
2022/04/29 07:33:33;;;;;;;2.92;2.65;;;14.90;55.50;;;;;;5043315;28;20699;-59
2022/04/29 07:41:44;;;;;;;3.25;2.90;;;15.10;55.30;;;;;;5046864;28;20028;-59
2022/04/29 07:44:11;;;;;;;4.05;2.80;;;15.10;55.20;;;;;;5048284;28;20028;-60
2022/04/29 07:46:37;;;;;;;3.13;2.80;;;15.10;55.30;;;;;;5049597;28;20032;-61
2022/04/29 07:49:06;;;;;;;2.72;2.40;;;15.20;55.30;;;;;;5047461;28;20032;-60
2022/04/29 07:51:31;;;;;;;3.15;2.60;;;15.20;55.30;;;;;;5042601;28;20154;-61
2022/04/29 07:53:57;;;;;;;3.65;2.80;;;15.20;55.30;;;;;;5038652;28;20119;-61
2022/04/29 07:56:23;;;;;;;4.35;3.20;;;15.20;55.40;;;;;;5027981;28;20029;-61
2022/04/29 07:58:48;;;;;;;3.72;2.95;;;15.20;55.40;;;;;;5042970;28;20086;-62
2022/04/29 08:01:15;;;;;;;2.95;2.60;;;15.20;55.30;;;;;;5037415;28;20029;-60
2022/04/29 08:03:45;;;;;;;3.05;2.75;;;15.30;55.30;;;;;;5017505;28;20353;-60
2022/04/29 08:06:10;;;;;;;3.72;3.05;;;15.30;55.30;;;;;;5042250;28;20039;-62
2022/04/29 08:08:39;;;;;;;4.10;2.72;;;15.30;55.20;;;;;;5041565;28;20037;-61
2022/04/29 08:11:06;;;;;;;4.07;3.00;;;15.40;55.20;;;;;;5045080;28;20055;-61
2022/04/29 08:13:32;;;;;;;3.17;2.78;;;15.40;55.20;;;;;;5051741;28;20025;-59
2022/04/29 08:16:01;;;;;;;3.92;2.97;;;15.50;55.00;;;;;;5049672;28;20037;-63
2022/04/29 08:18:28;;;;;;;3.75;2.92;;;15.50;54.80;;;;;;5046092;28;20036;-60
2022/04/29 08:20:53;;;;;;;3.72;2.65;;;15.60;54.70;;;;;;5048830;28;20029;-61
2022/04/29 08:23:19;;;;;;;3.00;2.60;;;15.60;54.80;;;;;;5045592;28;20050;-61
2022/04/29 08:25:45;;;;;;;4.70;3.20;;;15.70;54.60;;;;;;5042064;28;20070;-60
2022/04/29 08:28:11;;;;;;;3.58;2.97;;;15.70;54.40;;;;;;5050660;28;20029;-60
2022/04/29 08:30:37;;;;;;;3.47;2.70;;;15.80;54.20;;;;;;5049454;28;20501;-58
2022/04/29 08:33:02;;;;;;;3.63;2.70;;;15.80;54.20;;;;;;5044480;28;20073;-60
2022/04/29 08:35:29;;;;;;;5.38;3.00;;;15.80;53.90;;;;;;5050729;28;20029;-60
2022/04/29 08:37:56;;;;;;;3.15;2.60;;;15.90;53.80;;;;;;5047055;28;20029;-60
2022/04/29 08:40:23;;;;;;;3.65;2.72;;;15.90;54.40;;;;;;5049520;28;20047;-61
2022/04/29 08:42:49;;;;;;;2.95;2.63;;;16.00;53.60;;;;;;5043160;28;20028;-59
2022/04/29 08:45:16;;;;;;;3.70;2.80;;;16.10;53.60;;;;;;5035256;28;20040;-59
2022/04/29 08:47:44;;;;;;;3.25;2.88;;;16.10;53.60;;;;;;5035376;28;20036;-61
2022/04/29 08:50:13;;;;;;;3.47;2.90;;;16.10;53.50;;;;;;5046782;28;20485;-58
2022/04/29 08:52:39;;;;;;;4.88;2.83;;;16.20;53.40;;;;;;5049251;28;20033;-58
2022/04/29 09:00:38;;;;;;;3.38;2.78;;;16.30;53.00;;;;;;5030056;28;20987;-62
2022/04/29 09:03:06;;;;;;;4.07;2.78;;;16.40;53.00;;;;;;5026997;28;20053;-61
2022/04/29 09:05:33;;;;;;;3.30;3.00;;;16.40;52.90;;;;;;5043545;28;20025;-62
2022/04/29 09:08:04;;;;;;;3.03;2.70;;;16.40;53.00;;;;;;5048950;28;20028;-61
2022/04/29 09:10:35;;;;;;;3.35;2.90;;;16.40;53.00;;;;;;5040476;28;20997;-62
2022/04/29 09:13:11;;;;;;;2.83;2.50;;;16.40;53.10;;;;;;5041345;28;20855;-61
2022/04/29 09:15:54;;;;;;;3.90;2.38;;;16.50;53.00;;;;;;5037684;28;20064;-62
2022/04/29 09:18:41;;;;;;;3.22;2.67;;;16.50;52.70;;;;;;5042718;28;20476;-62
2022/04/29 09:21:27;;;;;;;4.00;2.80;;;16.50;52.60;;;;;;5050372;28;20024;-61
2022/04/29 09:23:55;;;;;;;2.88;2.42;;;16.60;52.40;;;;;;5025955;28;22477;-62
2022/04/29 09:26:24;;;;;;;3.58;2.95;;;16.60;52.40;;;;;;5040844;28;20036;-62
2022/04/29 09:28:52;;;;;;;2.58;2.30;;;16.60;52.30;;;;;;5043665;28;20029;-62
2022/04/29 09:31:18;;;;;;;3.72;2.63;;;16.60;52.30;;;;;;5039236;28;20021;-61
2022/04/29 09:33:55;;;;;;;2.63;2.40;;;16.60;52.00;;;;;;5039792;28;22583;-62
2022/04/29 09:36:26;;;;;;;3.05;2.25;;;16.60;52.10;;;;;;5043539;28;20025;-61
2022/04/29 09:42:05;;;;;;;3.17;2.50;;;16.70;51.90;;;;;;5046939;28;20447;-59
2022/04/29 09:44:32;;;;;;;3.42;2.80;;;16.70;51.80;;;;;;5043945;28;20051;-61
2022/04/29 09:47:12;;;;;;;3.83;2.30;;;16.60;52.00;;;;;;5049798;28;20709;-60
2022/04/29 09:49:38;;;;;;;3.05;2.40;;;16.60;51.70;;;;;;5040921;28;20021;-62
2022/04/29 09:52:05;;;;;;;2.85;2.55;;;16.60;51.50;;;;;;5042922;28;20068;-60
2022/04/29 09:54:37;;;;;;;2.55;2.35;;;16.60;51.70;;;;;;5046152;28;20029;-59
2022/04/29 09:57:08;;;;;;;;;;;16.60;51.80;;;;;;5042717;28;20124;-61
2022/04/29 09:59:40;;;;;;;3.33;2.47;;;16.50;51.90;;;;;;5049819;28;19920;-60
2022/04/29 10:02:06;;;;;;;2.60;2.40;;;16.60;52.50;;;;;;5042448;28;20040;-61
2022/04/29 10:04:37;;;;;;;2.67;2.40;;;16.60;52.00;;;;;;5049419;28;20029;-61
2022/04/29 10:07:04;;;;;;;2.50;2.30;;;16.70;52.00;;;;;;5054903;28;20357;-61
2022/04/29 10:09:32;;;;;;;3.03;2.47;;;16.70;51.90;;;;;;5048754;28;20029;-58
2022/04/29 10:11:59;;;;;;;3.28;2.55;;;16.80;51.90;;;;;;5053346;28;20115;-60
2022/04/29 10:14:27;;;;;;;2.88;2.58;;;16.80;51.90;;;;;;5049010;28;20035;-59
2022/04/29 10:22:41;;;;;;;3.20;2.55;;;17.00;51.80;;;;;;5052914;28;20046;-60
2022/04/29 10:25:08;;;;;;;4.18;2.88;;;17.00;51.90;;;;;;5052307;28;20037;-59
2022/04/29 10:27:40;;;;;;;3.58;2.83;;;17.00;52.20;;;;;;5055323;28;20036;-59
2022/04/29 10:30:06;;;;;;;;;;;17.10;52.20;;;;;;5055732;28;20033;-59
2022/04/29 10:33:12;;;;;;;3.58;2.75;;;17.10;52.20;;;;;;5053757;28;19908;-61
2022/04/29 10:35:43;;;;;;;4.30;2.65;;;17.20;52.20;;;;;;5053573;28;20045;-60
2022/04/29 10:38:18;;;;;;;4.15;2.90;;;17.20;52.00;;;;;;5055280;28;20556;-60
2022/04/29 10:40:45;;;;;;;3.30;2.60;;;17.30;52.20;;;;;;5054694;28;20036;-60
2022/04/29 10:43:14;;;;;;;2.58;2.38;;;17.30;51.70;;;;;;5052843;28;20033;-60
2022/04/29 10:46:14;;;;;;;3.33;2.47;;;17.20;51.00;;;;;;5052310;28;20024;-61
2022/04/29 10:48:41;;;;;;;3.45;2.60;;;17.20;50.80;;;;;;5053760;28;20101;-61
2022/04/29 10:51:21;;;;;;;4.05;2.40;;;17.10;50.70;;;;;;5058166;28;20029;-60
2022/04/29 10:53:50;;;;;;;2.28;2.08;;;17.10;50.40;;;;;;5042754;28;20764;-60
2022/04/29 10:56:28;;;;;;;3.28;2.47;;;17.10;50.30;;;;;;5043555;28;20055;-59
2022/04/29 10:59:18;;;;;;;3.03;2.30;;;17.10;50.10;;;;;;5042521;28;20041;-58
2022/04/29 11:02:13;;;;;;;2.55;2.20;;;17.00;49.90;;;;;;5048854;28;20032;-60
2022/04/29 11:04:39;;;;;;;4.63;2.60;;;17.00;49.50;;;;;;5048877;28;20025;-60
2022/04/29 11:07:04;;;;;;;2.35;2.15;;;17.00;49.90;;;;;;5049401;28;20060;-59
2022/04/29 11:09:35;;;;;;;2.88;2.45;;;17.00;49.90;;;;;;5049635;28;20041;-60
2022/04/29 11:12:02;;;;;;;3.30;2.20;;;17.00;49.70;;;;;;5044727;28;20106;-61
2022/04/29 11:14:28;;;;;;;2.38;2.17;;;17.00;49.70;;;;;;5048448;28;20036;-59
2022/04/29 11:17:08;;;;;;;2.42;2.05;;;17.00;49.60;;;;;;5053262;28;20071;-60
2022/04/29 11:19:35;;;;;;;4.20;2.08;;;17.00;49.40;;;;;;5045348;28;20020;-60
2022/04/29 11:24:49;;;;;;;2.10;2.00;;;17.00;49.20;;;;;;5049629;28;20601;-61
2022/04/29 11:27:27;;;;;;;3.22;2.00;;;17.00;49.10;;;;;;5049485;28;20060;-60
2022/04/29 11:29:56;;;;;;;2.15;1.95;;;17.10;49.00;;;;;;5036222;28;20032;-62
2022/04/29 11:32:25;;;;;;;2.33;2.13;;;17.10;49.00;;;;;;5047233;28;20145;-61
2022/04/29 11:34:52;;;;;;;2.15;1.95;;;17.10;49.00;;;;;;5047918;28;20041;-61
2022/04/29 11:37:28;;;;;;;2.95;2.10;;;17.00;49.00;;;;;;5036059;28;20047;-61
2022/04/29 11:40:01;;;;;;;2.92;2.50;;;16.90;48.80;;;;;;5053481;28;20123;-61
2022/04/29 11:42:27;;;;;;;2.10;1.90;;;16.80;48.90;;;;;;5052715;28;20032;-61
2022/04/29 11:45:34;;;;;;;2.30;2.10;;;16.70;49.10;;;;;;5048743;28;20029;-61
2022/04/29 11:48:06;;;;;;;2.92;2.00;;;16.70;48.90;;;;;;5029897;28;20588;-62
2022/04/29 11:50:34;;;;;;;2.17;1.80;;;16.70;49.40;;;;;;5038192;28;20032;-61
2022/04/29 11:53:07;;;;;;;2.08;1.90;;;16.70;49.70;;;;;;5039957;28;20043;-61
2022/04/29 11:55:33;;;;;;;2.10;1.90;;;16.70;48.90;;;;;;5040774;28;20059;-61
2022/04/29 11:57:59;;;;;;;2.88;2.13;;;16.70;49.00;;;;;;5045757;28;20415;-62
2022/04/29 12:00:30;;;;;;;2.83;1.95;;;16.70;48.90;;;;;;5044550;28;20078;-61
2022/04/29 12:02:57;;;;;;;2.10;1.63;;;16.70;48.70;;;;;;5044564;28;20032;-62
2022/04/29 12:05:25;;;;;;;5.32;1.80;;;16.70;48.50;;;;;;5043939;28;20032;-60
2022/04/29 12:07:51;;;;;;;2.45;1.90;;;16.60;48.40;;;;;;5036944;28;20029;-61
2022/04/29 12:10:22;;;;;;;1.90;1.48;;;16.60;48.20;;;;;;5044834;28;20487;-60
2022/04/29 12:12:48;;;;;;;;;;;16.60;48.20;;;;;;5056404;28;20032;-59
2022/04/29 12:15:24;;;;;;;1.50;1.40;;;16.50;46.90;;;;;;5051911;28;19924;-61
2022/04/29 12:17:50;;;;;;;1.60;1.50;;;16.50;48.00;;;;;;5046431;28;20029;-60
2022/04/29 12:20:18;;;;;;;1.75;1.65;;;16.50;48.00;;;;;;5049474;28;20082;-64
2022/04/29 12:22:47;;;;;;;1.40;1.40;;;16.50;47.80;;;;;;5048355;28;20040;-63
2022/04/29 12:25:26;;;;;;;1.70;1.60;;;16.50;47.70;;;;;;5043394;28;20044;-63
2022/04/29 12:28:11;;;;;;;1.77;1.42;;;16.50;47.40;;;;;;5050236;28;20028;-62
2022/04/29 12:36:59;;;;;;;1.52;1.42;;;16.40;46.70;;;;;;5049392;28;20137;-60
2022/04/29 12:39:25;;;;;;;1.50;1.40;;;16.30;47.10;;;;;;5050055;28;20787;-60
2022/04/29 12:42:14;;;;;;;1.67;1.58;;;16.30;46.70;;;;;;5045462;28;20040;-61
2022/04/29 12:47:53;;;;;;;1.58;1.48;;;16.20;46.60;;;;;;5050876;28;20133;-61
2022/04/29 12:50:34;;;;;;;1.40;1.30;;;16.20;46.60;;;;;;5045677;28;20056;-61
2022/04/29 12:53:12;;;;;;;1.45;1.35;;;16.20;46.60;;;;;;5049374;28;20040;-63
2022/04/29 12:55:46;;;;;;;1.65;1.42;;;16.20;46.70;;;;;;5047124;28;20546;-60
2022/04/29 12:58:24;;;;;;;1.40;1.30;;;16.20;46.50;;;;;;5051356;28;20118;-61
2022/04/29 13:00:54;;;;;;;1.70;1.60;;;16.20;46.30;;;;;;5041057;28;20023;-60
2022/04/29 13:03:22;;;;;;;1.67;1.52;;;16.20;46.40;;;;;;5038435;28;20503;-60
2022/04/29 13:05:48;;;;;;;1.70;1.60;;;16.10;46.40;;;;;;5041633;28;20074;-60
2022/04/29 13:08:14;;;;;;;1.55;1.45;;;16.10;46.30;;;;;;5047852;28;21031;-62
2022/04/29 13:10:45;;;;;;;2.05;1.60;;;16.10;46.50;;;;;;5027831;28;20703;-59
2022/04/29 13:13:12;;;;;;;1.52;1.42;;;16.10;46.60;;;;;;5045406;28;20101;-62
2022/04/29 13:15:40;;;;;;;2.65;1.77;;;16.10;46.50;;;;;;5042107;28;20557;-61
2022/04/29 13:18:07;;;;;;;1.92;1.67;;;16.10;46.40;;;;;;5045594;28;20047;-59
2022/04/29 13:20:33;;;;;;;1.52;1.48;;;16.10;46.20;;;;;;5043347;28;20052;-60
2022/04/29 13:22:59;;;;;;;1.80;1.70;;;16.10;46.30;;;;;;5044201;28;20040;-60
2022/04/29 13:25:25;;;;;;;2.33;1.73;;;16.10;46.20;;;;;;5045432;28;20365;-60
2022/04/29 13:27:50;;;;;;;1.75;1.65;;;16.10;46.20;;;;;;5048237;28;20028;-60
2022/04/29 13:30:16;;;;;;;2.38;1.70;;;16.10;46.30;;;;;;5040710;28;20112;-61
2022/04/29 13:32:42;;;;;;;1.88;1.73;;;16.10;46.40;;;;;;5047609;28;20025;-62